»·PEaware :: N384SC KSMX-KCMA

N384SC :: KSMX-KCMA

FLIGHT INFORMATION

Flight Status: Arrived
Operator: Privately registered:
United States
More flights under this callsign
Pilot: Sanjiv S. (4490)
Aircraft: Unknown
(PIPA)
More flights by this aircraft type
Origin: KSMX Santa Maria Pub/Capt Hancock
United States
Destination: KCMA Camarillo
United States
More flights between these airports :: More routes between these airports
Route: +RZS VTU
File this flight plan on PilotEdge
Remarks: TEC route SBAN70
Altitude:
(Current/Filed)
7,000ft
Speed:
(Current/Filed)
160kts
Departed: 17-Jun-17 09:46 AM
Arrived: 17-Jun-17 10:30 AM
Distance/Time
Traveled:
79nm/0:44
Distance/Time
To Go:
Arrived

Flight Plot

Page will automatically refresh every two minutes.


Map Options




Map Legend


Flown Route
Filed Route
Departure Airport
Arrival Airport
Navaid (VOR, NDB)
Fix

Horizontal Profiles

Position Reports

Time Latitude Longitude Heading Altitude Ground
Speed
17-Jun-17 09:29 34.901547 -120.451068 154 264ft 0kts
17-Jun-17 09:30 34.901547 -120.451068 154 264ft 0kts
17-Jun-17 09:31 34.901547 -120.451068 154 264ft 0kts
17-Jun-17 09:32 34.901547 -120.451068 154 264ft 0kts
17-Jun-17 09:33 34.901547 -120.451068 154 264ft 0kts
17-Jun-17 09:34 34.901547 -120.451068 154 264ft 0kts
17-Jun-17 09:35 34.901547 -120.451068 154 264ft 0kts
17-Jun-17 09:36 34.901547 -120.451068 154 264ft 0kts
17-Jun-17 09:37 34.901547 -120.451068 154 264ft 0kts
17-Jun-17 09:38 34.901547 -120.451068 154 264ft 0kts
17-Jun-17 09:39 34.901547 -120.451068 154 264ft 0kts
17-Jun-17 09:40 34.901547 -120.451068 154 264ft 0kts
17-Jun-17 09:41 34.901440 -120.451029 171 264ft 4kts
17-Jun-17 09:42 34.900577 -120.450780 121 264ft 2kts
17-Jun-17 09:43 34.899204 -120.450260 181 264ft 7kts
17-Jun-17 09:44 34.896744 -120.448094 136 264ft 15kts
17-Jun-17 09:45 34.893466 -120.445220 180 264ft 10kts
17-Jun-17 09:46 34.893346 -120.445219 179 264ft 0kts
17-Jun-17 09:47 34.893346 -120.445219 179 264ft 0kts
17-Jun-17 09:48 34.893252 -120.446425 314 264ft 40kts
17-Jun-17 09:49 34.914453 -120.464519 6 907ft 114kts
17-Jun-17 09:50 34.914894 -120.435520 112 1835ft 95kts
17-Jun-17 09:51 34.904701 -120.406052 112 2678ft 99kts
17-Jun-17 09:52 34.893249 -120.373466 112 3810ft 107kts
17-Jun-17 09:53 34.878043 -120.342681 126 4941ft 107kts
17-Jun-17 09:54 34.859548 -120.313974 126 6043ft 108kts
17-Jun-17 09:55 34.841037 -120.285171 125 6988ft 118kts
17-Jun-17 09:56 34.815665 -120.245523 126 7013ft 172kts
17-Jun-17 09:57 34.784854 -120.197583 127 7007ft 187kts
17-Jun-17 09:58 34.752132 -120.146705 127 7008ft 193kts
17-Jun-17 09:59 34.719109 -120.095381 126 7008ft 194kts
17-Jun-17 10:00 34.685699 -120.043497 126 7008ft 195kts
17-Jun-17 10:01 34.652580 -119.992126 126 7008ft 195kts
17-Jun-17 10:02 34.619635 -119.941134 126 7005ft 195kts
17-Jun-17 10:03 34.586802 -119.890353 126 7001ft 194kts
17-Jun-17 10:04 34.554485 -119.840419 126 6997ft 193kts
17-Jun-17 10:05 34.522087 -119.790412 126 6992ft 192kts
17-Jun-17 10:06 34.492507 -119.739270 121 6990ft 190kts
17-Jun-17 10:07 34.464212 -119.687224 121 6990ft 189kts
17-Jun-17 10:08 34.435794 -119.634956 121 6990ft 189kts
17-Jun-17 10:09 34.407057 -119.582143 121 6990ft 189kts
17-Jun-17 10:10 34.378356 -119.529462 121 6994ft 189kts
17-Jun-17 10:11 34.349510 -119.476561 121 7004ft 190kts
17-Jun-17 10:12 34.320473 -119.423361 121 7015ft 192kts
17-Jun-17 10:13 34.291006 -119.369472 121 7022ft 193kts
17-Jun-17 10:14 34.268572 -119.328510 122 7026ft 194kts
17-Jun-17 10:15 34.239264 -119.275091 122 7027ft 195kts
17-Jun-17 10:16 34.210110 -119.222029 122 7020ft 196kts
17-Jun-17 10:17 34.180647 -119.168501 122 7013ft 196kts
17-Jun-17 10:18 34.150998 -119.114713 122 7007ft 196kts
17-Jun-17 10:19 34.141378 -119.054048 91 6999ft 189kts
17-Jun-17 10:20 34.139611 -118.994552 91 6447ft 171kts
17-Jun-17 10:21 34.138327 -118.940610 91 5533ft 161kts
17-Jun-17 10:22 34.137670 -118.886825 91 4998ft 169kts
17-Jun-17 10:23 34.165756 -118.858700 351 4999ft 169kts
17-Jun-17 10:24 34.211357 -118.864958 348 4992ft 169kts
17-Jun-17 10:25 34.226272 -118.910006 271 4949ft 165kts
17-Jun-17 10:26 34.228275 -118.964810 271 3460ft 156kts
17-Jun-17 10:27 34.228985 -119.011798 268 3390ft 139kts
17-Jun-17 10:28 34.236098 -119.051404 329 3375ft 140kts
17-Jun-17 10:29 34.260627 -119.033856 113 2513ft 151kts
17-Jun-17 10:30 34.223909 -119.027769 189 1489ft 130kts
17-Jun-17 10:31 34.213373 -119.052240 267 462ft 84kts
17-Jun-17 10:32 34.213632 -119.078232 266 172ft 70kts
17-Jun-17 10:33 34.213550 -119.094931 237 80ft 20kts
17-Jun-17 10:34 34.212774 -119.095651 193 80ft 0kts
17-Jun-17 10:35 34.212774 -119.095651 193 80ft 0kts
17-Jun-17 10:35 34.212691 -119.095674 192 80ft 5kts
17-Jun-17 10:36 34.211008 -119.093443 93 80ft 13kts

Navigation Log

Ident Type
1. KSMX Airport
2. RZS Navaid
3. VTU Navaid
4. KCMA Airport